sensor_id;sensor_type;location;lat;lon;timestamp;pressure;altitude;pressure_sealevel;temperature;humidity
38558;BME280;24333;42.626;23.308;2023-06-04T00:01:05;69790.41;;;-148.95;100.00
38558;BME280;24333;42.626;23.308;2023-06-04T00:03:31;69780.03;;;-148.95;100.00
38558;BME280;24333;42.626;23.308;2023-06-04T00:05:57;69777.97;;;-148.95;100.00
38558;BME280;24333;42.626;23.308;2023-06-04T00:08:23;69784.19;;;-148.95;100.00
38558;BME280;24333;42.626;23.308;2023-06-04T00:10:48;69782.13;;;-148.95;100.00
38558;BME280;24333;42.626;23.308;2023-06-04T00:13:14;69769.69;;;-148.95;100.00
38558;BME280;24333;42.626;23.308;2023-06-04T00:15:40;69773.81;;;-148.95;100.00
38558;BME280;24333;42.626;23.308;2023-06-04T00:18:06;69767.59;;;-148.95;100.00
38558;BME280;24333;42.626;23.308;2023-06-04T00:20:32;69769.69;;;-148.95;100.00
38558;BME280;24333;42.626;23.308;2023-06-04T00:22:58;69761.38;;;-148.95;100.00
38558;BME280;24333;42.626;23.308;2023-06-04T00:25:23;69761.38;;;-148.95;100.00
38558;BME280;24333;42.626;23.308;2023-06-04T00:27:49;69757.22;;;-148.95;100.00
38558;BME280;24333;42.626;23.308;2023-06-04T00:30:34;69761.38;;;-148.95;100.00
38558;BME280;24333;42.626;23.308;2023-06-04T00:33:00;69771.75;;;-148.95;100.00
38558;BME280;24333;42.626;23.308;2023-06-04T00:35:26;69771.75;;;-148.95;100.00
38558;BME280;24333;42.626;23.308;2023-06-04T00:37:55;69773.81;;;-148.95;100.00
38558;BME280;24333;42.626;23.308;2023-06-04T00:44:07;69782.13;;;-148.95;100.00
38558;BME280;24333;42.626;23.308;2023-06-04T00:46:54;69796.63;;;-148.95;100.00
38558;BME280;24333;42.626;23.308;2023-06-04T00:49:20;69792.50;;;-148.95;100.00
38558;BME280;24333;42.626;23.308;2023-06-04T00:51:46;69809.09;;;-148.95;100.00
38558;BME280;24333;42.626;23.308;2023-06-04T00:54:12;69809.09;;;-148.95;100.00
38558;BME280;24333;42.626;23.308;2023-06-04T00:56:39;69802.88;;;-148.95;100.00
38558;BME280;24333;42.626;23.308;2023-06-04T00:59:07;69790.41;;;-148.95;100.00
38558;BME280;24333;42.626;23.308;2023-06-04T01:01:42;69790.41;;;-148.95;100.00
38558;BME280;24333;42.626;23.308;2023-06-04T01:04:16;69786.28;;;-148.95;100.00
38558;BME280;24333;42.626;23.308;2023-06-04T01:06:44;69786.28;;;-148.95;100.00
38558;BME280;24333;42.626;23.308;2023-06-04T01:09:10;69790.41;;;-148.95;100.00
38558;BME280;24333;42.626;23.308;2023-06-04T01:11:38;69780.03;;;-148.95;100.00
38558;BME280;24333;42.626;23.308;2023-06-04T01:14:23;69773.81;;;-148.95;100.00
38558;BME280;24333;42.626;23.308;2023-06-04T01:16:56;69765.53;;;-148.95;100.00
38558;BME280;24333;42.626;23.308;2023-06-04T01:22:04;69753.06;;;-148.95;100.00
38558;BME280;24333;42.626;23.308;2023-06-04T01:28:30;69748.94;;;-148.95;100.00
38558;BME280;24333;42.626;23.308;2023-06-04T01:30:57;69753.06;;;-148.95;100.00
38558;BME280;24333;42.626;23.308;2023-06-04T01:33:25;69753.06;;;-148.95;100.00
38558;BME280;24333;42.626;23.308;2023-06-04T01:35:51;69759.31;;;-148.95;100.00
38558;BME280;24333;42.626;23.308;2023-06-04T01:38:18;69763.44;;;-148.95;100.00
38558;BME280;24333;42.626;23.308;2023-06-04T01:40:43;69761.38;;;-148.95;100.00
38558;BME280;24333;42.626;23.308;2023-06-04T01:43:12;69763.44;;;-148.95;100.00
38558;BME280;24333;42.626;23.308;2023-06-04T01:45:38;69769.69;;;-148.95;100.00
38558;BME280;24333;42.626;23.308;2023-06-04T01:48:05;69771.75;;;-148.95;100.00
38558;BME280;24333;42.626;23.308;2023-06-04T01:50:32;69773.81;;;-148.95;100.00
38558;BME280;24333;42.626;23.308;2023-06-04T01:52:58;69771.75;;;-148.95;100.00
38558;BME280;24333;42.626;23.308;2023-06-04T01:55:24;69771.75;;;-148.95;100.00
38558;BME280;24333;42.626;23.308;2023-06-04T01:57:55;69767.59;;;-148.95;100.00
38558;BME280;24333;42.626;23.308;2023-06-04T02:00:21;69767.59;;;-148.95;100.00
38558;BME280;24333;42.626;23.308;2023-06-04T02:02:48;69769.69;;;-148.95;100.00
38558;BME280;24333;42.626;23.308;2023-06-04T02:05:15;69771.75;;;-148.95;100.00
38558;BME280;24333;42.626;23.308;2023-06-04T02:07:46;69773.81;;;-148.95;100.00
38558;BME280;24333;42.626;23.308;2023-06-04T02:10:18;69780.03;;;-148.95;100.00
38558;BME280;24333;42.626;23.308;2023-06-04T02:12:56;69782.13;;;-148.95;100.00
38558;BME280;24333;42.626;23.308;2023-06-04T02:15:22;69784.19;;;-148.95;100.00
38558;BME280;24333;42.626;23.308;2023-06-04T02:17:54;69796.63;;;-148.95;100.00
38558;BME280;24333;42.626;23.308;2023-06-04T02:20:26;69796.63;;;-148.95;100.00
38558;BME280;24333;42.626;23.308;2023-06-04T02:22:56;69798.72;;;-148.95;100.00
38558;BME280;24333;42.626;23.308;2023-06-04T02:35:43;69831.91;;;-148.95;100.00
38558;BME280;24333;42.626;23.308;2023-06-04T02:38:09;69852.66;;;-148.95;100.00
38558;BME280;24333;42.626;23.308;2023-06-04T02:40:34;69860.94;;;-148.95;100.00
38558;BME280;24333;42.626;23.308;2023-06-04T02:43:00;69856.81;;;-148.95;100.00
38558;BME280;24333;42.626;23.308;2023-06-04T02:45:25;69856.81;;;-148.95;100.00
38558;BME280;24333;42.626;23.308;2023-06-04T02:47:51;69860.94;;;-148.95;100.00
38558;BME280;24333;42.626;23.308;2023-06-04T02:50:16;69858.88;;;-148.95;100.00
38558;BME280;24333;42.626;23.308;2023-06-04T02:52:42;69865.09;;;-148.95;100.00
38558;BME280;24333;42.626;23.308;2023-06-04T02:55:09;69869.25;;;-148.95;100.00
38558;BME280;24333;42.626;23.308;2023-06-04T02:57:37;69865.09;;;-148.95;100.00
38558;BME280;24333;42.626;23.308;2023-06-04T03:00:04;69860.94;;;-148.95;100.00
38558;BME280;24333;42.626;23.308;2023-06-04T03:02:38;69858.88;;;-148.95;100.00
38558;BME280;24333;42.626;23.308;2023-06-04T03:05:03;69852.66;;;-148.95;100.00
38558;BME280;24333;42.626;23.308;2023-06-04T03:07:29;69848.50;;;-148.95;100.00
38558;BME280;24333;42.626;23.308;2023-06-04T03:09:54;69846.44;;;-148.95;100.00
38558;BME280;24333;42.626;23.308;2023-06-04T03:12:21;69846.44;;;-148.95;100.00
38558;BME280;24333;42.626;23.308;2023-06-04T03:14:46;69846.44;;;-148.95;100.00
38558;BME280;24333;42.626;23.308;2023-06-04T03:17:12;69844.34;;;-148.95;100.00
38558;BME280;24333;42.626;23.308;2023-06-04T03:19:39;69842.28;;;-148.95;100.00
38558;BME280;24333;42.626;23.308;2023-06-04T03:22:06;69842.28;;;-148.95;100.00
38558;BME280;24333;42.626;23.308;2023-06-04T03:24:36;69831.91;;;-148.95;100.00
38558;BME280;24333;42.626;23.308;2023-06-04T03:27:06;69838.13;;;-148.95;100.00
38558;BME280;24333;42.626;23.308;2023-06-04T03:29:33;69836.06;;;-148.95;100.00
38558;BME280;24333;42.626;23.308;2023-06-04T03:31:59;69840.19;;;-148.95;100.00
38558;BME280;24333;42.626;23.308;2023-06-04T03:34:25;69836.06;;;-148.95;100.00
38558;BME280;24333;42.626;23.308;2023-06-04T03:36:51;69838.13;;;-148.95;100.00
38558;BME280;24333;42.626;23.308;2023-06-04T03:39:17;69844.34;;;-148.95;100.00
38558;BME280;24333;42.626;23.308;2023-06-04T03:41:42;69846.44;;;-148.95;100.00
38558;BME280;24333;42.626;23.308;2023-06-04T03:44:08;69848.50;;;-148.95;100.00
38558;BME280;24333;42.626;23.308;2023-06-04T03:46:33;69844.34;;;-148.95;100.00
38558;BME280;24333;42.626;23.308;2023-06-04T04:29:08;69869.25;;;-148.95;100.00
38558;BME280;24333;42.626;23.308;2023-06-04T04:31:33;69867.16;;;-148.95;100.00
38558;BME280;24333;42.626;23.308;2023-06-04T04:34:01;69854.72;;;-148.95;100.00
38558;BME280;24333;42.626;23.308;2023-06-04T04:36:32;69850.56;;;-148.95;100.00
38558;BME280;24333;42.626;23.308;2023-06-04T04:38:58;69844.34;;;-148.95;100.00
38558;BME280;24333;42.626;23.308;2023-06-04T04:41:23;69836.06;;;-148.95;100.00
38558;BME280;24333;42.626;23.308;2023-06-04T04:43:48;69829.84;;;-148.95;100.00
38558;BME280;24333;42.626;23.308;2023-06-04T04:46:14;69809.09;;;-148.95;100.00
38558;BME280;24333;42.626;23.308;2023-06-04T04:48:39;69800.78;;;-148.95;100.00
38558;BME280;24333;42.626;23.308;2023-06-04T04:51:07;69792.50;;;-148.95;100.00
38558;BME280;24333;42.626;23.308;2023-06-04T04:53:32;69777.97;;;-148.95;100.00
38558;BME280;24333;42.626;23.308;2023-06-04T04:55:58;69794.56;;;-148.95;100.00
38558;BME280;24333;42.626;23.308;2023-06-04T04:58:23;69804.94;;;-148.95;100.00
38558;BME280;24333;42.626;23.308;2023-06-04T05:00:49;69819.47;;;-148.95;100.00
38558;BME280;24333;42.626;23.308;2023-06-04T05:03:15;69819.47;;;-148.95;100.00
38558;BME280;24333;42.626;23.308;2023-06-04T05:05:40;69836.06;;;-148.95;100.00
38558;BME280;24333;42.626;23.308;2023-06-04T05:08:05;69827.75;;;-148.95;100.00
38558;BME280;24333;42.626;23.308;2023-06-04T05:10:31;69815.31;;;-148.95;100.00
38558;BME280;24333;42.626;23.308;2023-06-04T05:13:00;69788.34;;;-148.95;100.00
38558;BME280;24333;42.626;23.308;2023-06-04T05:15:30;69804.94;;;-148.95;100.00
38558;BME280;24333;42.626;23.308;2023-06-04T05:17:55;69794.56;;;-148.95;100.00
38558;BME280;24333;42.626;23.308;2023-06-04T05:20:22;69777.97;;;-148.95;100.00
38558;BME280;24333;42.626;23.308;2023-06-04T05:22:47;69757.22;;;-148.95;100.00
38558;BME280;24333;42.626;23.308;2023-06-04T05:25:14;69765.53;;;-148.95;100.00
38558;BME280;24333;42.626;23.308;2023-06-04T05:27:40;69753.06;;;-148.95;100.00
38558;BME280;24333;42.626;23.308;2023-06-04T05:30:06;69732.34;;;-148.95;100.00
38558;BME280;24333;42.626;23.308;2023-06-04T05:32:32;69761.38;;;-148.95;100.00
38558;BME280;24333;42.626;23.308;2023-06-04T05:34:58;69769.69;;;-148.95;100.00
38558;BME280;24333;42.626;23.308;2023-06-04T05:37:27;69773.81;;;-148.95;100.00
38558;BME280;24333;42.626;23.308;2023-06-04T05:39:55;69769.69;;;-148.95;100.00
38558;BME280;24333;42.626;23.308;2023-06-04T05:42:20;69788.34;;;-148.95;100.00
38558;BME280;24333;42.626;23.308;2023-06-04T05:44:46;69769.69;;;-148.95;100.00
38558;BME280;24333;42.626;23.308;2023-06-04T05:47:11;69769.69;;;-148.95;100.00
38558;BME280;24333;42.626;23.308;2023-06-04T05:49:37;69753.06;;;-148.95;100.00
38558;BME280;24333;42.626;23.308;2023-06-04T05:52:02;69755.16;;;-148.95;100.00
38558;BME280;24333;42.626;23.308;2023-06-04T05:54:28;69759.31;;;-148.95;100.00
38558;BME280;24333;42.626;23.308;2023-06-04T05:56:54;69786.28;;;-148.95;100.00
38558;BME280;24333;42.626;23.308;2023-06-04T05:59:19;69798.72;;;-148.95;100.00
38558;BME280;24333;42.626;23.308;2023-06-04T06:01:45;69796.63;;;-148.95;100.00
38558;BME280;24333;42.626;23.308;2023-06-04T06:04:11;69782.13;;;-148.95;100.00
38558;BME280;24333;42.626;23.308;2023-06-04T06:06:37;69794.56;;;-148.95;100.00
38558;BME280;24333;42.626;23.308;2023-06-04T06:09:02;69786.28;;;-148.95;100.00
38558;BME280;24333;42.626;23.308;2023-06-04T06:11:28;69788.34;;;-148.95;100.00
38558;BME280;24333;42.626;23.308;2023-06-04T06:13:53;69775.91;;;-148.95;100.00
38558;BME280;24333;42.626;23.308;2023-06-04T06:16:19;69788.34;;;-148.95;100.00
38558;BME280;24333;42.626;23.308;2023-06-04T06:18:44;69786.28;;;-148.95;100.00
38558;BME280;24333;42.626;23.308;2023-06-04T06:21:10;69773.81;;;-148.95;100.00
38558;BME280;24333;42.626;23.308;2023-06-04T06:23:36;69769.69;;;-148.95;100.00
38558;BME280;24333;42.626;23.308;2023-06-04T06:26:02;69761.38;;;-148.95;100.00
38558;BME280;24333;42.626;23.308;2023-06-04T06:28:30;69751.00;;;-148.95;100.00
38558;BME280;24333;42.626;23.308;2023-06-04T07:52:40;69506.25;;;-148.95;100.00
38558;BME280;24333;42.626;23.308;2023-06-04T07:55:05;69539.44;;;-148.95;100.00
38558;BME280;24333;42.626;23.308;2023-06-04T07:57:31;69558.09;;;-148.95;100.00
38558;BME280;24333;42.626;23.308;2023-06-04T07:59:57;69591.28;;;-148.95;100.00
38558;BME280;24333;42.626;23.308;2023-06-04T08:02:24;69535.28;;;-148.95;100.00
38558;BME280;24333;42.626;23.308;2023-06-04T08:04:50;69508.31;;;-148.95;100.00
38558;BME280;24333;42.626;23.308;2023-06-04T08:09:58;69529.06;;;-148.95;100.00
38558;BME280;24333;42.626;23.308;2023-06-04T08:12:24;69491.72;;;-148.95;99.94
38558;BME280;24333;42.626;23.308;2023-06-04T08:14:50;69500.00;;;-148.95;99.66
38558;BME280;24333;42.626;23.308;2023-06-04T08:17:28;69470.97;;;-148.95;97.57
38558;BME280;24333;42.626;23.308;2023-06-04T08:19:53;69433.63;;;-148.95;90.89
38558;BME280;24333;42.626;23.308;2023-06-04T08:22:19;69437.78;;;-148.95;90.24
38558;BME280;24333;42.626;23.308;2023-06-04T08:24:44;69450.22;;;-148.95;89.17
38558;BME280;24333;42.626;23.308;2023-06-04T08:27:11;69396.31;;;-148.95;86.74
38558;BME280;24333;42.626;23.308;2023-06-04T08:29:40;69358.97;;;-148.95;83.24
38558;BME280;24333;42.626;23.308;2023-06-04T08:32:14;69348.59;;;-148.95;81.13
38558;BME280;24333;42.626;23.308;2023-06-04T08:34:40;69392.16;;;-148.95;82.98
38558;BME280;24333;42.626;23.308;2023-06-04T08:42:43;69340.31;;;-148.95;75.70
38558;BME280;24333;42.626;23.308;2023-06-04T08:45:32;69327.84;;;-148.95;74.13
38558;BME280;24333;42.626;23.308;2023-06-04T08:51:36;69352.75;;;-148.95;73.46
38558;BME280;24333;42.626;23.308;2023-06-04T08:54:06;69361.03;;;-148.95;73.80
38558;BME280;24333;42.626;23.308;2023-06-04T08:56:34;69354.81;;;-148.95;73.68
38558;BME280;24333;42.626;23.308;2023-06-04T08:59:05;69342.38;;;-148.95;75.17
38558;BME280;24333;42.626;23.308;2023-06-04T09:01:47;69340.31;;;-148.95;70.53
38558;BME280;24333;42.626;23.308;2023-06-04T09:04:33;69363.13;;;-148.95;70.83
38558;BME280;24333;42.626;23.308;2023-06-04T09:09:38;69365.19;;;-148.95;70.53
38558;BME280;24333;42.626;23.308;2023-06-04T09:12:05;69363.13;;;-148.95;71.35
38558;BME280;24333;42.626;23.308;2023-06-04T09:14:32;69352.75;;;-148.95;70.05
38558;BME280;24333;42.626;23.308;2023-06-04T09:16:58;69421.19;;;-148.95;73.45
38558;BME280;24333;42.626;23.308;2023-06-04T09:19:24;69477.19;;;-148.95;75.21
38558;BME280;24333;42.626;23.308;2023-06-04T09:21:58;69456.47;;;-148.95;76.10
38558;BME280;24333;42.626;23.308;2023-06-04T09:24:25;69421.19;;;-148.95;75.67
38558;BME280;24333;42.626;23.308;2023-06-04T09:27:13;69369.34;;;-148.95;72.82
38558;BME280;24333;42.626;23.308;2023-06-04T09:29:55;69346.53;;;-148.95;69.53
38558;BME280;24333;42.626;23.308;2023-06-04T09:32:39;69344.44;;;-148.95;68.46
38558;BME280;24333;42.626;23.308;2023-06-04T09:35:15;69336.16;;;-148.95;69.99
38558;BME280;24333;42.626;23.308;2023-06-04T09:37:41;69307.13;;;-148.95;66.97
38558;BME280;24333;42.626;23.308;2023-06-04T09:40:08;69363.13;;;-148.95;70.38
38558;BME280;24333;42.626;23.308;2023-06-04T09:42:44;69381.78;;;-148.95;72.24
38558;BME280;24333;42.626;23.308;2023-06-04T09:45:10;69371.41;;;-148.95;72.25
38558;BME280;24333;42.626;23.308;2023-06-04T09:47:43;69334.09;;;-148.95;70.82
38558;BME280;24333;42.626;23.308;2023-06-04T09:50:12;69412.91;;;-148.95;73.49
38558;BME280;24333;42.626;23.308;2023-06-04T09:52:37;69398.38;;;-148.95;76.02
38558;BME280;24333;42.626;23.308;2023-06-04T09:55:15;69383.84;;;-148.95;73.38
38558;BME280;24333;42.626;23.308;2023-06-04T10:24:55;69151.56;;;-148.95;59.12
38558;BME280;24333;42.626;23.308;2023-06-04T10:27:22;69180.59;;;-148.95;61.02
38558;BME280;24333;42.626;23.308;2023-06-04T10:29:49;69186.81;;;-148.95;60.69
38558;BME280;24333;42.626;23.308;2023-06-04T10:32:15;69201.34;;;-148.95;61.98
38558;BME280;24333;42.626;23.308;2023-06-04T10:34:42;69259.41;;;-148.95;63.23
38558;BME280;24333;42.626;23.308;2023-06-04T10:37:19;69240.75;;;-148.95;63.79
38558;BME280;24333;42.626;23.308;2023-06-04T10:39:50;69267.72;;;-148.95;64.38
38558;BME280;24333;42.626;23.308;2023-06-04T11:24:17;69402.53;;;-148.95;73.10
38558;BME280;24333;42.626;23.308;2023-06-04T11:26:44;69358.97;;;-148.95;71.22
38558;BME280;24333;42.626;23.308;2023-06-04T11:29:11;69350.69;;;-148.95;67.41
38558;BME280;24333;42.626;23.308;2023-06-04T11:31:43;69352.75;;;-148.95;68.88
38558;BME280;24333;42.626;23.308;2023-06-04T11:34:31;69342.38;;;-148.95;67.80
38558;BME280;24333;42.626;23.308;2023-06-04T11:37:52;69350.69;;;-148.95;68.26
38558;BME280;24333;42.626;23.308;2023-06-04T11:40:19;69361.03;;;-148.95;66.15
38558;BME280;24333;42.626;23.308;2023-06-04T11:42:46;69377.63;;;-148.95;67.96
38558;BME280;24333;42.626;23.308;2023-06-04T11:45:13;69390.09;;;-148.95;68.96
38558;BME280;24333;42.626;23.308;2023-06-04T11:47:46;69404.59;;;-148.95;72.33
38558;BME280;24333;42.626;23.308;2023-06-04T11:53:07;69491.72;;;-148.95;86.62
38558;BME280;24333;42.626;23.308;2023-06-04T11:55:33;69514.53;;;-148.95;89.61
38558;BME280;24333;42.626;23.308;2023-06-04T11:58:23;69533.19;;;-148.95;97.75
38558;BME280;24333;42.626;23.308;2023-06-04T12:05:20;69599.59;;;-148.95;100.00
38558;BME280;24333;42.626;23.308;2023-06-04T12:07:51;69618.25;;;-148.95;100.00
38558;BME280;24333;42.626;23.308;2023-06-04T12:10:18;69632.78;;;-148.95;100.00
38558;BME280;24333;42.626;23.308;2023-06-04T12:12:54;69653.50;;;-148.95;100.00
38558;BME280;24333;42.626;23.308;2023-06-04T12:15:21;69670.09;;;-148.95;100.00
38558;BME280;24333;42.626;23.308;2023-06-04T12:17:51;69684.63;;;-148.95;100.00
38558;BME280;24333;42.626;23.308;2023-06-04T12:20:40;69695.00;;;-148.95;100.00
38558;BME280;24333;42.626;23.308;2023-06-04T12:23:06;69701.22;;;-148.95;100.00
38558;BME280;24333;42.626;23.308;2023-06-04T12:25:33;69692.91;;;-148.95;100.00
38558;BME280;24333;42.626;23.308;2023-06-04T12:27:59;69699.16;;;-148.95;100.00
38558;BME280;24333;42.626;23.308;2023-06-04T12:30:50;69703.28;;;-148.95;100.00
38558;BME280;24333;42.626;23.308;2023-06-04T12:33:25;69699.16;;;-148.95;100.00
38558;BME280;24333;42.626;23.308;2023-06-04T12:36:09;69705.38;;;-148.95;100.00
38558;BME280;24333;42.626;23.308;2023-06-04T12:38:35;69707.44;;;-148.95;100.00
38558;BME280;24333;42.626;23.308;2023-06-04T12:41:00;69711.59;;;-148.95;100.00
38558;BME280;24333;42.626;23.308;2023-06-04T12:43:26;69721.97;;;-148.95;100.00
38558;BME280;24333;42.626;23.308;2023-06-04T12:45:51;69740.63;;;-148.95;100.00
38558;BME280;24333;42.626;23.308;2023-06-04T12:48:17;69746.84;;;-148.95;100.00
38558;BME280;24333;42.626;23.308;2023-06-04T12:50:42;69769.69;;;-148.95;100.00
38558;BME280;24333;42.626;23.308;2023-06-04T12:53:07;69780.03;;;-148.95;100.00
38558;BME280;24333;42.626;23.308;2023-06-04T12:55:33;69780.03;;;-148.95;100.00
38558;BME280;24333;42.626;23.308;2023-06-04T12:57:59;69784.19;;;-148.95;100.00
38558;BME280;24333;42.626;23.308;2023-06-04T13:00:24;69782.13;;;-148.95;100.00
38558;BME280;24333;42.626;23.308;2023-06-04T13:02:50;69773.81;;;-148.95;100.00
38558;BME280;24333;42.626;23.308;2023-06-04T13:05:16;69773.81;;;-148.95;100.00
38558;BME280;24333;42.626;23.308;2023-06-04T13:07:41;69755.16;;;-148.95;100.00
38558;BME280;24333;42.626;23.308;2023-06-04T13:10:07;69753.06;;;-148.95;100.00
38558;BME280;24333;42.626;23.308;2023-06-04T13:12:33;69740.63;;;-148.95;100.00
38558;BME280;24333;42.626;23.308;2023-06-04T13:14:58;69724.03;;;-148.95;100.00
38558;BME280;24333;42.626;23.308;2023-06-04T13:17:23;69701.22;;;-148.95;100.00
38558;BME280;24333;42.626;23.308;2023-06-04T13:19:49;69682.56;;;-148.95;100.00
38558;BME280;24333;42.626;23.308;2023-06-04T13:22:15;69663.88;;;-148.95;100.00
38558;BME280;24333;42.626;23.308;2023-06-04T13:24:41;69641.06;;;-148.95;100.00
38558;BME280;24333;42.626;23.308;2023-06-04T13:27:06;69605.81;;;-148.95;100.00
38558;BME280;24333;42.626;23.308;2023-06-04T13:29:32;69564.31;;;-148.95;100.00
38558;BME280;24333;42.626;23.308;2023-06-04T13:31:58;69526.97;;;-148.95;100.00
38558;BME280;24333;42.626;23.308;2023-06-04T13:34:24;69493.78;;;-148.95;100.00
38558;BME280;24333;42.626;23.308;2023-06-04T13:36:49;69466.81;;;-148.95;100.00
38558;BME280;24333;42.626;23.308;2023-06-04T13:39:15;69454.38;;;-148.95;100.00
38558;BME280;24333;42.626;23.308;2023-06-04T13:41:41;69431.56;;;-148.95;100.00
38558;BME280;24333;42.626;23.308;2023-06-04T13:44:07;69417.03;;;-148.95;100.00
38558;BME280;24333;42.626;23.308;2023-06-04T13:46:33;69408.75;;;-148.95;100.00
38558;BME280;24333;42.626;23.308;2023-06-04T13:48:59;69406.69;;;-148.95;100.00
38558;BME280;24333;42.626;23.308;2023-06-04T13:51:25;69408.75;;;-148.95;100.00
38558;BME280;24333;42.626;23.308;2023-06-04T13:53:50;69425.34;;;-148.95;100.00
38558;BME280;24333;42.626;23.308;2023-06-04T13:56:18;69431.56;;;-148.95;100.00
38558;BME280;24333;42.626;23.308;2023-06-04T13:58:44;69439.88;;;-148.95;100.00
38558;BME280;24333;42.626;23.308;2023-06-04T14:01:09;69446.09;;;-148.95;100.00
38558;BME280;24333;42.626;23.308;2023-06-04T14:03:35;69454.38;;;-148.95;100.00
38558;BME280;24333;42.626;23.308;2023-06-04T14:06:13;69452.31;;;-148.95;100.00
38558;BME280;24333;42.626;23.308;2023-06-04T14:08:38;69452.31;;;-148.95;100.00
38558;BME280;24333;42.626;23.308;2023-06-04T14:11:04;69450.22;;;-148.95;100.00
38558;BME280;24333;42.626;23.308;2023-06-04T14:13:29;69439.88;;;-148.95;100.00
38558;BME280;24333;42.626;23.308;2023-06-04T14:16:20;69460.59;;;-148.95;100.00
38558;BME280;24333;42.626;23.308;2023-06-04T17:54:00;69852.66;;;-148.95;100.00
38558;BME280;24333;42.626;23.308;2023-06-04T17:56:25;69856.81;;;-148.95;100.00
38558;BME280;24333;42.626;23.308;2023-06-04T17:58:52;69869.25;;;-148.95;100.00
38558;BME280;24333;42.626;23.308;2023-06-04T18:01:17;69877.53;;;-148.95;100.00
38558;BME280;24333;42.626;23.308;2023-06-04T18:03:43;69887.91;;;-148.95;100.00
38558;BME280;24333;42.626;23.308;2023-06-04T18:06:08;69894.13;;;-148.95;100.00
38558;BME280;24333;42.626;23.308;2023-06-04T18:08:33;69906.59;;;-148.95;100.00
38558;BME280;24333;42.626;23.308;2023-06-04T18:10:59;69919.03;;;-148.95;100.00
38558;BME280;24333;42.626;23.308;2023-06-04T18:13:24;69927.31;;;-148.95;100.00
38558;BME280;24333;42.626;23.308;2023-06-04T18:15:50;69931.47;;;-148.95;100.00
38558;BME280;24333;42.626;23.308;2023-06-04T18:18:15;69935.63;;;-148.95;100.00
38558;BME280;24333;42.626;23.308;2023-06-04T18:20:40;69937.69;;;-148.95;100.00
38558;BME280;24333;42.626;23.308;2023-06-04T22:11:15;70294.53;;;-148.95;100.00
38558;BME280;24333;42.626;23.308;2023-06-04T22:13:43;70302.84;;;-148.95;100.00
38558;BME280;24333;42.626;23.308;2023-06-04T22:16:09;70300.75;;;-148.95;100.00
38558;BME280;24333;42.626;23.308;2023-06-04T22:18:34;70302.84;;;-148.95;100.00
38558;BME280;24333;42.626;23.308;2023-06-04T22:21:15;70300.75;;;-148.95;100.00
38558;BME280;24333;42.626;23.308;2023-06-04T22:23:46;70294.53;;;-148.95;100.00
38558;BME280;24333;42.626;23.308;2023-06-04T22:26:11;70300.75;;;-148.95;100.00
38558;BME280;24333;42.626;23.308;2023-06-04T22:28:37;70300.75;;;-148.95;100.00
38558;BME280;24333;42.626;23.308;2023-06-04T22:31:03;70306.97;;;-148.95;100.00
38558;BME280;24333;42.626;23.308;2023-06-04T22:33:28;70306.97;;;-148.95;100.00
38558;BME280;24333;42.626;23.308;2023-06-04T22:35:54;70306.97;;;-148.95;100.00
38558;BME280;24333;42.626;23.308;2023-06-04T22:38:19;70319.44;;;-148.95;100.00
38558;BME280;24333;42.626;23.308;2023-06-04T22:40:45;70315.28;;;-148.95;100.00
38558;BME280;24333;42.626;23.308;2023-06-04T22:43:10;70319.44;;;-148.95;100.00
38558;BME280;24333;42.626;23.308;2023-06-04T22:45:36;70319.44;;;-148.95;100.00
38558;BME280;24333;42.626;23.308;2023-06-04T22:53:13;70331.88;;;-148.95;100.00
38558;BME280;24333;42.626;23.308;2023-06-04T22:55:42;70323.56;;;-148.95;100.00
38558;BME280;24333;42.626;23.308;2023-06-04T22:58:08;70323.56;;;-148.95;100.00
38558;BME280;24333;42.626;23.308;2023-06-04T23:06:31;70317.34;;;-148.95;100.00
38558;BME280;24333;42.626;23.308;2023-06-04T23:08:56;70321.50;;;-148.95;100.00
38558;BME280;24333;42.626;23.308;2023-06-04T23:11:21;70317.34;;;-148.95;100.00
38558;BME280;24333;42.626;23.308;2023-06-04T23:13:47;70321.50;;;-148.95;100.00
38558;BME280;24333;42.626;23.308;2023-06-04T23:16:12;70313.19;;;-148.95;100.00
38558;BME280;24333;42.626;23.308;2023-06-04T23:23:48;70309.06;;;-148.95;100.00
38558;BME280;24333;42.626;23.308;2023-06-04T23:26:14;70311.13;;;-148.95;100.00
38558;BME280;24333;42.626;23.308;2023-06-04T23:28:40;70313.19;;;-148.95;100.00
38558;BME280;24333;42.626;23.308;2023-06-04T23:31:08;70306.97;;;-148.95;100.00
38558;BME280;24333;42.626;23.308;2023-06-04T23:33:34;70304.91;;;-148.95;100.00
38558;BME280;24333;42.626;23.308;2023-06-04T23:36:00;70294.53;;;-148.95;100.00
38558;BME280;24333;42.626;23.308;2023-06-04T23:38:29;70298.69;;;-148.95;100.00
38558;BME280;24333;42.626;23.308;2023-06-04T23:41:00;70300.75;;;-148.95;100.00
38558;BME280;24333;42.626;23.308;2023-06-04T23:43:42;70304.91;;;-148.95;100.00
38558;BME280;24333;42.626;23.308;2023-06-04T23:46:08;70296.59;;;-148.95;100.00
38558;BME280;24333;42.626;23.308;2023-06-04T23:48:34;70298.69;;;-148.95;100.00
38558;BME280;24333;42.626;23.308;2023-06-04T23:50:59;70292.47;;;-148.95;100.00
38558;BME280;24333;42.626;23.308;2023-06-04T23:53:25;70292.47;;;-148.95;100.00
38558;BME280;24333;42.626;23.308;2023-06-04T23:55:51;70288.31;;;-148.95;100.00
38558;BME280;24333;42.626;23.308;2023-06-04T23:58:16;70288.31;;;-148.95;100.00
